Time;durP1;ratioP1;P1;durP2;ratioP2;P2;SDS_P1;SDS_P2;PMS_P1;PMS_P2;Temp;Humidity;BMP_temperature;BMP_pressure;BME280_temperature;BME280_humidity;BME280_pressure;Samples;Min_cycle;Max_cycle;Signal;HPM_P1;HPM_P2
2022/03/12 07:01:21;;;;;;;;;;;;;;;;;;6019806;23;19937;-84
2022/03/12 07:03:48;;;;;;;;;;;;;;;;;;6037560;23;19922;-84
2022/03/12 07:06:15;;;;;;;;;;;;;;;;;;6036780;23;19941;-83
2022/03/12 07:08:42;;;;;;;;;;;;;;;;;;6038169;23;19922;-85
2022/03/12 07:11:10;;;;;;;;;;;;;;;;;;6037481;23;20352;-85
2022/03/12 07:13:37;;;;;;;;;;;;;;;;;;6037746;23;19917;-85
2022/03/12 07:16:04;;;;;;;;;;;;;;;;;;6036853;23;19922;-83
2022/03/12 07:18:31;;;;;;;;;;;;;;;;;;6038041;23;19918;-84
2022/03/12 07:20:57;;;;;;;;;;;;;;;;;;6037859;23;19965;-85
2022/03/12 07:23:24;;;;;;;;;;;;;;;;;;6036973;23;20042;-85
2022/03/12 07:25:52;;;;;;;;;;;;;;;;;;6038076;23;19969;-85
2022/03/12 07:28:20;;;;;;;;;;;;;;;;;;6037223;23;19922;-85
2022/03/12 07:30:46;;;;;;;;;;;;;;;;;;6037614;23;19937;-85
2022/03/12 07:33:13;;;;;;;;;;;;;;;;;;6037365;23;19945;-84
2022/03/12 07:35:40;;;;;;;;;;;;;;;;;;6037684;23;19918;-85
2022/03/12 07:38:06;;;;;;;;;;;;;;;;;;6036834;23;20345;-84
2022/03/12 07:40:33;;;;;;;;;;;;;;;;;;6037643;23;20293;-85
2022/03/12 07:43:00;;;;;;;;;;;;;;;;;;6038365;23;20309;-84
2022/03/12 07:45:26;;;;;;;;;;;;;;;;;;6037153;23;19966;-85
2022/03/12 07:47:53;;;;;;;;;;;;;;;;;;6037716;23;19946;-85
2022/03/12 07:50:19;;;;;;;;;;;;;;;;;;6036820;23;19917;-85
2022/03/12 07:52:46;;;;;;;;;;;;;;;;;;6037880;23;19918;-84
2022/03/12 07:55:13;;;;;;;;;;;;;;;;;;6037173;23;19946;-84
2022/03/12 07:57:41;;;;;;;;;;;;;;;;;;6037345;23;19925;-84
2022/03/12 08:00:08;;;;;;;;;;;;;;;;;;6036905;23;19974;-85
2022/03/12 08:02:35;;;;;;;;;;;;;;;;;;6008649;23;20646;-83
2022/03/12 08:05:02;;;;;;;;;;;;;;;;;;6009152;23;20306;-85
2022/03/12 08:07:30;;;;;;;;;;;;;;;;;;6008726;23;20077;-85
2022/03/12 08:09:56;;;;;;;;;;;;;;;;;;6009377;23;19918;-84
2022/03/12 08:12:28;;;;;;;;;;;;;;;;;;6008564;23;20628;-84
2022/03/12 08:14:54;;;;;;;;;;;;;;;;;;6008713;23;20341;-84
2022/03/12 08:17:21;;;;;;;;;;;;;;;;;;6008305;23;19978;-85
2022/03/12 08:19:49;;;;;;;;;;;;;;;;;;6008675;23;19973;-84
2022/03/12 08:22:15;;;;;;;;;;;;;;;;;;6008656;23;19942;-83
2022/03/12 08:24:42;;;;;;;;;;;;;;;;;;6008703;23;19918;-84
2022/03/12 08:27:09;;;;;;;;;;;;;;;;;;6007899;23;20346;-83
2022/03/12 08:29:35;;;;;;;;;;;;;;;;;;6007611;23;19929;-83
2022/03/12 08:32:07;;;;;;;;;;;;;;;;;;6004181;23;20383;-82
2022/03/12 08:34:34;;;;;;;;;;;;;;;;;;6002720;23;19961;-84
2022/03/12 08:37:01;;;;;;;;;;;;;;;;;;6004062;23;19918;-83
2022/03/12 08:39:27;;;;;;;;;;;;;;;;;;5977855;23;19922;-82
2022/03/12 08:41:54;;;;;;;;;;;;;;;;;;6004099;23;19919;-83
2022/03/12 08:44:21;;;;;;;;;;;;;;;;;;6002491;23;19922;-83
2022/03/12 08:46:48;;;;;;;;;;;;;;;;;;6004372;23;19922;-83
2022/03/12 08:49:16;;;;;;;;;;;;;;;;;;6001581;23;19974;-83
2022/03/12 08:51:42;;;;;;;;;;;;;;;;;;6004462;23;19922;-85
2022/03/12 08:54:09;;;;;;;;;;;;;;;;;;5978351;23;20360;-85
2022/03/12 08:56:36;;;;;;;;;;;;;;;;;;6004515;23;20345;-86
2022/03/12 08:59:02;;;;;;;;;;;;;;;;;;5980089;23;19922;-83
2022/03/12 09:01:30;;;;;;;;;;;;;;;;;;6003603;23;19930;-84
2022/03/12 09:03:57;;;;;;;;;;;;;;;;;;6004139;23;19948;-85
2022/03/12 09:06:27;;;;;;;;;;;;;;;;;;6003547;23;20353;-85
2022/03/12 09:08:53;;;;;;;;;;;;;;;;;;6004582;23;20301;-85
2022/03/12 09:11:20;;;;;;;;;;;;;;;;;;5978758;23;19925;-86
2022/03/12 09:13:47;;;;;;;;;;;;;;;;;;6004768;23;19918;-85
2022/03/12 09:16:14;;;;;;;;;;;;;;;;;;6003588;23;19946;-84
2022/03/12 09:18:42;;;;;;;;;;;;;;;;;;6003815;23;19918;-84
2022/03/12 09:21:09;;;;;;;;;;;;;;;;;;6003008;23;19981;-85
2022/03/12 09:23:35;;;;;;;;;;;;;;;;;;6003694;23;19925;-84
2022/03/12 09:26:02;;;;;;;;;;;;;;;;;;6004193;23;19954;-84
2022/03/12 09:28:29;;;;;;;;;;;;;;;;;;6003957;23;19941;-84
2022/03/12 09:30:55;;;;;;;;;;;;;;;;;;6003822;23;20334;-83
2022/03/12 09:33:22;;;;;;;;;;;;;;;;;;6002625;23;19974;-84
2022/03/12 09:35:50;;;;;;;;;;;;;;;;;;6003821;23;19925;-84
2022/03/12 09:38:17;;;;;;;;;;;;;;;;;;5978388;23;19922;-83
2022/03/12 09:40:44;;;;;;;;;;;;;;;;;;6003990;23;19922;-83
2022/03/12 09:43:11;;;;;;;;;;;;;;;;;;5978527;23;19922;-80
2022/03/12 09:45:37;;;;;;;;;;;;;;;;;;6003404;23;19970;-82
2022/03/12 09:48:04;;;;;;;;;;;;;;;;;;6003142;23;19926;-84
2022/03/12 09:50:31;;;;;;;;;;;;;;;;;;6003728;23;19926;-84
2022/03/12 09:52:58;;;;;;;;;;;;;;;;;;6003899;23;20389;-83
2022/03/12 09:55:24;;;;;;;;;;;;;;;;;;6003932;23;22008;-83
2022/03/12 09:57:51;;;;;;;;;;;;;;;;;;6004832;23;19946;-82
2022/03/12 10:00:18;;;;;;;;;;;;;;;;;;6004448;23;20307;-84
2022/03/12 10:02:45;;;;;;;;;;;;;;;;;;6001739;23;19958;-83
2022/03/12 10:05:13;;;;;;;;;;;;;;;;;;6003582;23;19997;-83
2022/03/12 10:07:41;;;;;;;;;;;;;;;;;;6003750;23;19918;-85
2022/03/12 10:10:11;;;;;;;;;;;;;;;;;;6003117;23;19974;-84
2022/03/12 10:12:37;;;;;;;;;;;;;;;;;;6005634;23;19918;-87
2022/03/12 10:15:04;;;;;;;;;;;;;;;;;;6005422;23;20002;-86
2022/03/12 10:17:31;;;;;;;;;;;;;;;;;;6004705;23;19926;-85
2022/03/12 10:19:57;;;;;;;;;;;;;;;;;;6005682;23;19926;-86
2022/03/12 10:22:24;;;;;;;;;;;;;;;;;;6004155;23;20759;-88
2022/03/12 10:24:51;;;;;;;;;;;;;;;;;;5980014;23;19922;-85
2022/03/12 10:27:17;;;;;;;;;;;;;;;;;;6004549;23;19991;-88
2022/03/12 10:29:44;;;;;;;;;;;;;;;;;;6004481;23;19922;-87
2022/03/12 10:32:31;;;;;;;;;;;;;;;;;;6003415;23;20401;-87
2022/03/12 10:35:01;;;;;;;;;;;;;;;;;;6004153;23;19986;-87
2022/03/12 10:37:32;;;;;;;;;;;;;;;;;;6002310;23;19926;-86
2022/03/12 10:40:16;;;;;;;;;;;;;;;;;;6004719;23;19918;-87
2022/03/12 10:42:59;;;;;;;;;;;;;;;;;;6003245;23;19946;-88
2022/03/12 10:45:29;;;;;;;;;;;;;;;;;;6004251;23;20612;-87
2022/03/12 10:47:58;;;;;;;;;;;;;;;;;;6005145;23;20425;-89
2022/03/12 10:50:27;;;;;;;;;;;;;;;;;;5979318;23;20349;-87
2022/03/12 10:52:54;;;;;;;;;;;;;;;;;;6006310;23;19918;-88
2022/03/12 10:55:30;;;;;;;;;;;;;;;;;;6004811;23;19974;-86
2022/03/12 10:58:00;;;;;;;;;;;;;;;;;;6004633;23;20520;-89
2022/03/12 11:00:28;;;;;;;;;;;;;;;;;;6003763;23;19970;-87
2022/03/12 11:02:58;;;;;;;;;;;;;;;;;;6004790;23;19918;-87
2022/03/12 11:05:27;;;;;;;;;;;;;;;;;;6004545;23;20025;-87
2022/03/12 11:08:26;;;;;;;;;;;;;;;;;;5980013;23;19947;-86
2022/03/12 11:10:52;;;;;;;;;;;;;;;;;;5971525;23;19918;-87
2022/03/12 11:13:37;;;;;;;;;;;;;;;;;;5969935;23;20374;-89
2022/03/12 11:16:04;;;;;;;;;;;;;;;;;;5971663;23;19926;-91
2022/03/12 11:18:32;;;;;;;;;;;;;;;;;;5971607;23;19922;-87
2022/03/12 11:20:59;;;;;;;;;;;;;;;;;;5970143;23;19922;-87
2022/03/12 11:23:29;;;;;;;;;;;;;;;;;;5969053;23;19929;-85
2022/03/12 11:26:06;;;;;;;;;;;;;;;;;;5972198;23;20354;-83
2022/03/12 11:28:37;;;;;;;;;;;;;;;;;;5972880;23;19975;-87
2022/03/12 11:31:05;;;;;;;;;;;;;;;;;;5974158;23;19944;-87
2022/03/12 11:33:32;;;;;;;;;;;;;;;;;;5975116;23;20006;-90
2022/03/12 11:36:08;;;;;;;;;;;;;;;;;;5975785;23;19922;-88
2022/03/12 11:38:35;;;;;;;;;;;;;;;;;;5975872;24;19987;-90
2022/03/12 11:41:09;;;;;;;;;;;;;;;;;;5976103;23;19926;-90
2022/03/12 11:43:40;;;;;;;;;;;;;;;;;;5975874;23;19933;-91
2022/03/12 11:46:07;;;;;;;;;;;;;;;;;;5983199;23;20316;-86
2022/03/12 11:48:36;;;;;;;;;;;;;;;;;;6005317;23;19951;-88
2022/03/12 11:51:07;;;;;;;;;;;;;;;;;;6004270;23;19922;-89
2022/03/12 11:53:39;;;;;;;;;;;;;;;;;;6003357;23;19926;-88
2022/03/12 11:56:14;;;;;;;;;;;;;;;;;;6001878;23;19993;-87
2022/03/12 11:58:42;;;;;;;;;;;;;;;;;;6003265;23;20357;-88
2022/03/12 12:01:11;;;;;;;;;;;;;;;;;;6003389;23;19918;-90
2022/03/12 12:03:38;;;;;;;;;;;;;;;;;;6005906;23;19989;-86
2022/03/12 12:06:04;;;;;;;;;;;;;;;;;;6003412;23;20314;-86
2022/03/12 12:08:31;;;;;;;;;;;;;;;;;;6003882;23;19975;-87
2022/03/12 12:11:01;;;;;;;;;;;;;;;;;;6004272;23;19918;-87
2022/03/12 12:13:30;;;;;;;;;;;;;;;;;;6000885;23;19986;-85
2022/03/12 12:15:58;;;;;;;;;;;;;;;;;;6003435;23;19933;-87
2022/03/12 12:18:25;;;;;;;;;;;;;;;;;;6003554;23;19926;-87
2022/03/12 12:20:51;;;;;;;;;;;;;;;;;;6003016;23;19974;-87
2022/03/12 12:23:19;;;;;;;;;;;;;;;;;;6003305;23;19930;-87
2022/03/12 12:25:46;;;;;;;;;;;;;;;;;;6003450;23;19922;-87
2022/03/12 12:28:13;;;;;;;;;;;;;;;;;;6000899;23;20291;-86
2022/03/12 12:30:43;;;;;;;;;;;;;;;;;;6003308;23;20354;-88
2022/03/12 12:33:12;;;;;;;;;;;;;;;;;;6002681;23;19919;-86
2022/03/12 12:35:39;;;;;;;;;;;;;;;;;;6003162;23;19978;-86
2022/03/12 12:38:08;;;;;;;;;;;;;;;;;;6003233;23;19918;-87
2022/03/12 12:40:47;;;;;;;;;;;;;;;;;;5979718;23;20427;-88
2022/03/12 12:43:17;;;;;;;;;;;;;;;;;;6002764;23;19925;-86
2022/03/12 12:45:47;;;;;;;;;;;;;;;;;;5978777;23;19998;-87
2022/03/12 12:48:18;;;;;;;;;;;;;;;;;;5980375;23;19947;-88
2022/03/12 12:51:08;;;;;;;;;;;;;;;;;;6004821;23;19974;-87
2022/03/12 12:53:43;;;;;;;;;;;;;;;;;;6005137;23;19976;-89
2022/03/12 12:56:19;;;;;;;;;;;;;;;;;;6004627;23;19918;-88
2022/03/12 12:58:47;;;;;;;;;;;;;;;;;;5981017;23;19925;-91
2022/03/12 13:01:17;;;;;;;;;;;;;;;;;;6000567;23;19933;-89
2022/03/12 13:03:47;;;;;;;;;;;;;;;;;;6033843;23;20033;-89
2022/03/12 13:06:33;;;;;;;;;;;;;;;;;;6034408;23;20058;-90
2022/03/12 13:09:04;;;;;;;;;;;;;;;;;;6031267;23;19973;-85
2022/03/12 13:11:49;;;;;;;;;;;;;;;;;;6032838;23;19925;-88
2022/03/12 13:14:17;;;;;;;;;;;;;;;;;;6029838;23;19917;-90
2022/03/12 13:17:03;;;;;;;;;;;;;;;;;;6032149;23;20520;-87
2022/03/12 13:19:30;;;;;;;;;;;;;;;;;;6031989;23;19917;-88
2022/03/12 13:22:02;;;;;;;;;;;;;;;;;;6030442;23;19929;-87
2022/03/12 13:24:32;;;;;;;;;;;;;;;;;;6053460;23;19921;-88
2022/03/12 13:27:00;;;;;;;;;;;;;;;;;;6032337;23;20417;-88
2022/03/12 13:29:26;;;;;;;;;;;;;;;;;;6031658;23;19933;-89
2022/03/12 13:31:57;;;;;;;;;;;;;;;;;;6034673;23;20435;-87
2022/03/12 13:34:25;;;;;;;;;;;;;;;;;;6036593;23;19926;-90
2022/03/12 13:36:54;;;;;;;;;;;;;;;;;;6036375;23;19977;-92
2022/03/12 13:39:22;;;;;;;;;;;;;;;;;;6036293;23;19960;-91
2022/03/12 13:41:49;;;;;;;;;;;;;;;;;;6034761;23;19918;-92
2022/03/12 13:44:17;;;;;;;;;;;;;;;;;;6034738;23;20000;-92
2022/03/12 13:46:46;;;;;;;;;;;;;;;;;;6037249;23;20409;-88
2022/03/12 13:49:16;;;;;;;;;;;;;;;;;;6032960;23;19918;-92
2022/03/12 13:51:51;;;;;;;;;;;;;;;;;;6034419;23;19922;-87
2022/03/12 13:54:19;;;;;;;;;;;;;;;;;;6033361;23;19922;-88
2022/03/12 13:56:48;;;;;;;;;;;;;;;;;;6033650;23;19922;-90
2022/03/12 13:59:20;;;;;;;;;;;;;;;;;;6035126;23;19969;-92
2022/03/12 14:01:49;;;;;;;;;;;;;;;;;;6015887;23;20323;-91
2022/03/12 14:04:17;;;;;;;;;;;;;;;;;;6005913;23;19985;-88
2022/03/12 14:07:14;;;;;;;;;;;;;;;;;;5984981;23;19933;-91
2022/03/12 14:09:46;;;;;;;;;;;;;;;;;;5981705;23;19929;-91
2022/03/12 14:12:18;;;;;;;;;;;;;;;;;;6005788;23;19921;-91
2022/03/12 14:14:47;;;;;;;;;;;;;;;;;;5983938;23;19925;-92
2022/03/12 14:17:15;;;;;;;;;;;;;;;;;;6008199;23;19922;-91
2022/03/12 14:19:41;;;;;;;;;;;;;;;;;;6008964;23;20447;-89
2022/03/12 14:22:08;;;;;;;;;;;;;;;;;;6005801;23;19986;-90
2022/03/12 14:24:36;;;;;;;;;;;;;;;;;;5981753;23;20013;-89
2022/03/12 14:27:07;;;;;;;;;;;;;;;;;;5982545;23;20337;-89
2022/03/12 14:29:35;;;;;;;;;;;;;;;;;;6008876;23;19926;-93
2022/03/12 14:32:07;;;;;;;;;;;;;;;;;;6009366;23;19919;-91
2022/03/12 14:34:35;;;;;;;;;;;;;;;;;;6008871;23;19925;-91
2022/03/12 14:37:03;;;;;;;;;;;;;;;;;;6006506;23;20349;-92
2022/03/12 14:39:32;;;;;;;;;;;;;;;;;;6006689;23;19926;-93
2022/03/12 14:42:00;;;;;;;;;;;;;;;;;;6007198;23;19940;-94
2022/03/12 14:44:29;;;;;;;;;;;;;;;;;;6006356;23;19922;-93
2022/03/12 14:46:57;;;;;;;;;;;;;;;;;;6006482;23;19928;-85
2022/03/12 14:49:29;;;;;;;;;;;;;;;;;;6004538;23;19982;-88
2022/03/12 14:52:00;;;;;;;;;;;;;;;;;;5981389;23;19929;-88
2022/03/12 14:54:30;;;;;;;;;;;;;;;;;;6007929;23;19922;-89
2022/03/12 14:56:58;;;;;;;;;;;;;;;;;;6007990;23;19966;-90
2022/03/12 14:59:28;;;;;;;;;;;;;;;;;;5981814;23;19926;-87
2022/03/12 15:02:01;;;;;;;;;;;;;;;;;;6005318;23;19918;-88
2022/03/12 15:04:28;;;;;;;;;;;;;;;;;;6003551;23;19922;-87
2022/03/12 15:07:08;;;;;;;;;;;;;;;;;;6007110;23;19938;-91
2022/03/12 15:09:45;;;;;;;;;;;;;;;;;;5981021;23;19918;-88
2022/03/12 15:12:15;;;;;;;;;;;;;;;;;;5980431;23;19926;-88
2022/03/12 15:14:43;;;;;;;;;;;;;;;;;;6002973;23;19922;-86
2022/03/12 15:17:11;;;;;;;;;;;;;;;;;;5979410;23;19922;-87
2022/03/12 15:19:38;;;;;;;;;;;;;;;;;;5980007;23;19946;-87
2022/03/12 15:22:04;;;;;;;;;;;;;;;;;;6003916;23;20393;-87
2022/03/12 15:24:35;;;;;;;;;;;;;;;;;;6003788;23;19922;-86
2022/03/12 15:27:09;;;;;;;;;;;;;;;;;;5981169;23;19926;-86
2022/03/12 15:29:36;;;;;;;;;;;;;;;;;;5979610;23;20354;-84
2022/03/12 15:32:16;;;;;;;;;;;;;;;;;;6004891;23;19918;-84
2022/03/12 15:34:42;;;;;;;;;;;;;;;;;;6004596;23;19918;-84
2022/03/12 15:37:09;;;;;;;;;;;;;;;;;;6004028;23;19922;-84
2022/03/12 15:39:35;;;;;;;;;;;;;;;;;;6005024;23;19918;-84
2022/03/12 15:42:03;;;;;;;;;;;;;;;;;;6004748;23;19950;-83
2022/03/12 15:44:30;;;;;;;;;;;;;;;;;;6004196;23;19977;-85
2022/03/12 15:46:56;;;;;;;;;;;;;;;;;;5980624;23;19918;-87
2022/03/12 15:49:23;;;;;;;;;;;;;;;;;;6003483;23;19998;-87
2022/03/12 15:51:49;;;;;;;;;;;;;;;;;;6003567;23;19922;-87
2022/03/12 15:54:16;;;;;;;;;;;;;;;;;;5979974;23;19990;-86
2022/03/12 15:56:42;;;;;;;;;;;;;;;;;;6003440;23;19966;-85
2022/03/12 15:59:09;;;;;;;;;;;;;;;;;;6003919;23;19918;-87
2022/03/12 16:01:36;;;;;;;;;;;;;;;;;;6004516;23;19926;-84
2022/03/12 16:04:09;;;;;;;;;;;;;;;;;;6004276;23;19997;-83
2022/03/12 16:06:39;;;;;;;;;;;;;;;;;;6004214;23;20655;-85
2022/03/12 16:09:06;;;;;;;;;;;;;;;;;;6003787;23;19922;-85
2022/03/12 16:11:35;;;;;;;;;;;;;;;;;;6004405;23;19973;-85
2022/03/12 16:14:03;;;;;;;;;;;;;;;;;;6004436;23;20406;-84
2022/03/12 16:16:31;;;;;;;;;;;;;;;;;;6003683;23;19922;-84
2022/03/12 16:18:58;;;;;;;;;;;;;;;;;;6004348;23;19922;-84
2022/03/12 16:21:27;;;;;;;;;;;;;;;;;;6004159;23;20276;-84
2022/03/12 16:23:57;;;;;;;;;;;;;;;;;;6002406;23;19994;-85
2022/03/12 16:26:23;;;;;;;;;;;;;;;;;;6003204;23;20257;-85
2022/03/12 16:28:51;;;;;;;;;;;;;;;;;;5979946;23;19918;-86
2022/03/12 16:31:17;;;;;;;;;;;;;;;;;;6003914;23;19926;-85
2022/03/12 16:33:45;;;;;;;;;;;;;;;;;;6004383;23;19922;-86
2022/03/12 16:36:13;;;;;;;;;;;;;;;;;;6003986;23;19922;-86
2022/03/12 16:38:39;;;;;;;;;;;;;;;;;;6004283;23;20428;-85
2022/03/12 16:41:05;;;;;;;;;;;;;;;;;;6003723;23;19925;-86
2022/03/12 16:43:32;;;;;;;;;;;;;;;;;;6004376;23;19978;-85
2022/03/12 16:46:03;;;;;;;;;;;;;;;;;;6003927;23;19925;-85
2022/03/12 16:48:35;;;;;;;;;;;;;;;;;;6003287;23;20365;-84
2022/03/12 16:51:02;;;;;;;;;;;;;;;;;;6004101;23;19966;-84
2022/03/12 16:53:29;;;;;;;;;;;;;;;;;;6002579;23;20358;-84
2022/03/12 16:55:55;;;;;;;;;;;;;;;;;;6003885;23;19946;-84
2022/03/12 16:58:23;;;;;;;;;;;;;;;;;;6002615;23;20002;-84
2022/03/12 17:00:49;;;;;;;;;;;;;;;;;;6003226;23;19922;-83
2022/03/12 17:03:16;;;;;;;;;;;;;;;;;;6003766;23;19974;-82
2022/03/12 17:05:47;;;;;;;;;;;;;;;;;;6004180;23;19918;-83
2022/03/12 17:08:17;;;;;;;;;;;;;;;;;;6004916;23;19918;-83
2022/03/12 17:10:45;;;;;;;;;;;;;;;;;;6005876;23;20349;-82
2022/03/12 17:13:12;;;;;;;;;;;;;;;;;;6005082;23;19950;-83
2022/03/12 17:15:39;;;;;;;;;;;;;;;;;;6005335;23;19926;-79
2022/03/12 17:18:05;;;;;;;;;;;;;;;;;;6004708;23;19945;-80
2022/03/12 17:20:33;;;;;;;;;;;;;;;;;;6005693;23;20413;-81
2022/03/12 17:23:02;;;;;;;;;;;;;;;;;;6005016;23;19918;-79
2022/03/12 17:25:30;;;;;;;;;;;;;;;;;;6003853;23;19941;-83
2022/03/12 17:27:57;;;;;;;;;;;;;;;;;;5980933;23;19918;-84
2022/03/12 17:30:32;;;;;;;;;;;;;;;;;;6004219;23;19926;-84
2022/03/12 17:33:00;;;;;;;;;;;;;;;;;;6005017;23;19946;-86
2022/03/12 17:35:29;;;;;;;;;;;;;;;;;;6004924;23;20310;-86
2022/03/12 17:37:56;;;;;;;;;;;;;;;;;;6005034;23;20005;-86
2022/03/12 17:40:23;;;;;;;;;;;;;;;;;;6004801;23;19924;-86
2022/03/12 17:42:50;;;;;;;;;;;;;;;;;;6005184;23;19922;-87
2022/03/12 17:45:23;;;;;;;;;;;;;;;;;;6004387;23;19925;-86
2022/03/12 17:47:50;;;;;;;;;;;;;;;;;;5980324;23;19918;-86
2022/03/12 17:50:17;;;;;;;;;;;;;;;;;;6003924;23;19926;-86
2022/03/12 17:52:46;;;;;;;;;;;;;;;;;;6004596;23;19970;-84
2022/03/12 17:55:14;;;;;;;;;;;;;;;;;;6003950;23;19918;-87
2022/03/12 17:57:45;;;;;;;;;;;;;;;;;;6005017;23;19936;-85
2022/03/12 18:00:20;;;;;;;;;;;;;;;;;;6003913;23;19950;-85
2022/03/12 18:02:49;;;;;;;;;;;;;;;;;;6005333;23;19924;-87
2022/03/12 18:05:16;;;;;;;;;;;;;;;;;;5980024;23;20353;-87
2022/03/12 18:07:46;;;;;;;;;;;;;;;;;;6005600;23;20273;-87
2022/03/12 18:10:16;;;;;;;;;;;;;;;;;;6004575;23;19926;-87
2022/03/12 18:12:45;;;;;;;;;;;;;;;;;;6005738;23;19922;-87
2022/03/12 18:15:12;;;;;;;;;;;;;;;;;;5979518;23;19918;-88
2022/03/12 18:17:45;;;;;;;;;;;;;;;;;;6005110;23;19918;-88
2022/03/12 18:20:12;;;;;;;;;;;;;;;;;;6005410;23;19926;-89
2022/03/12 18:22:41;;;;;;;;;;;;;;;;;;6006243;23;20342;-87
2022/03/12 18:25:10;;;;;;;;;;;;;;;;;;6004358;23;19923;-87
2022/03/12 18:27:40;;;;;;;;;;;;;;;;;;6006104;23;19918;-88
2022/03/12 18:30:08;;;;;;;;;;;;;;;;;;5980387;23;20337;-88
2022/03/12 18:32:37;;;;;;;;;;;;;;;;;;6007002;23;19918;-89
2022/03/12 18:35:04;;;;;;;;;;;;;;;;;;6005816;23;19978;-89
2022/03/12 18:37:31;;;;;;;;;;;;;;;;;;6004647;23;19918;-85
2022/03/12 18:39:57;;;;;;;;;;;;;;;;;;5979107;23;19933;-84
2022/03/12 18:42:24;;;;;;;;;;;;;;;;;;6003089;23;20416;-86
2022/03/12 18:44:52;;;;;;;;;;;;;;;;;;5979443;23;19923;-83
2022/03/12 18:47:19;;;;;;;;;;;;;;;;;;6001474;23;20227;-85
2022/03/12 18:49:47;;;;;;;;;;;;;;;;;;6004154;23;19918;-87
2022/03/12 18:52:14;;;;;;;;;;;;;;;;;;6003600;23;19944;-87
2022/03/12 18:54:42;;;;;;;;;;;;;;;;;;6005497;23;19918;-87
2022/03/12 18:57:08;;;;;;;;;;;;;;;;;;6004464;23;19918;-86
2022/03/12 18:59:42;;;;;;;;;;;;;;;;;;6004809;23;19918;-87
2022/03/12 19:02:14;;;;;;;;;;;;;;;;;;6004340;23;20025;-87
2022/03/12 19:04:46;;;;;;;;;;;;;;;;;;6005360;23;19924;-87
2022/03/12 19:07:18;;;;;;;;;;;;;;;;;;6004412;23;19922;-87
2022/03/12 19:09:45;;;;;;;;;;;;;;;;;;6004560;23;19981;-87
2022/03/12 19:12:13;;;;;;;;;;;;;;;;;;6002448;23;19957;-86
2022/03/12 19:14:40;;;;;;;;;;;;;;;;;;6003431;23;19926;-85
2022/03/12 19:17:06;;;;;;;;;;;;;;;;;;6002732;23;19922;-88
2022/03/12 19:19:36;;;;;;;;;;;;;;;;;;5980191;23;19948;-85
2022/03/12 19:22:04;;;;;;;;;;;;;;;;;;6003851;23;19922;-86
2022/03/12 19:24:30;;;;;;;;;;;;;;;;;;6002876;23;20406;-84
2022/03/12 19:26:57;;;;;;;;;;;;;;;;;;6003929;23;19926;-87
2022/03/12 19:29:24;;;;;;;;;;;;;;;;;;6004788;23;19949;-90
2022/03/12 19:31:51;;;;;;;;;;;;;;;;;;5981344;23;19925;-89
2022/03/12 19:34:18;;;;;;;;;;;;;;;;;;5979060;23;19929;-88
2022/03/12 19:36:46;;;;;;;;;;;;;;;;;;5979758;23;19918;-87
2022/03/12 19:39:13;;;;;;;;;;;;;;;;;;6003757;23;19926;-87
2022/03/12 19:41:44;;;;;;;;;;;;;;;;;;6003776;23;19918;-86
2022/03/12 19:44:12;;;;;;;;;;;;;;;;;;6003409;23;20414;-86
2022/03/12 19:46:39;;;;;;;;;;;;;;;;;;5980482;23;20023;-84
2022/03/12 19:49:07;;;;;;;;;;;;;;;;;;6003428;23;19978;-87
2022/03/12 19:51:34;;;;;;;;;;;;;;;;;;6003678;23;19919;-85
2022/03/12 19:54:01;;;;;;;;;;;;;;;;;;6004523;23;19970;-87
2022/03/12 19:56:28;;;;;;;;;;;;;;;;;;6002504;23;19922;-85
2022/03/12 19:58:55;;;;;;;;;;;;;;;;;;6004986;23;19951;-85
2022/03/12 20:01:22;;;;;;;;;;;;;;;;;;6000468;23;19918;-84
2022/03/12 20:03:49;;;;;;;;;;;;;;;;;;5979113;23;19929;-85
2022/03/12 20:06:16;;;;;;;;;;;;;;;;;;6003432;23;20357;-86
2022/03/12 20:08:43;;;;;;;;;;;;;;;;;;6003697;23;19926;-86
2022/03/12 20:11:10;;;;;;;;;;;;;;;;;;6002795;23;19922;-85
2022/03/12 20:13:37;;;;;;;;;;;;;;;;;;6004008;23;20258;-87
2022/03/12 20:16:07;;;;;;;;;;;;;;;;;;5979246;23;19941;-85
2022/03/12 20:18:38;;;;;;;;;;;;;;;;;;6003469;23;19974;-85
2022/03/12 20:21:05;;;;;;;;;;;;;;;;;;6002380;23;19918;-85
2022/03/12 20:23:32;;;;;;;;;;;;;;;;;;6002564;23;19925;-87
2022/03/12 20:25:59;;;;;;;;;;;;;;;;;;6004038;23;20242;-87
2022/03/12 20:28:26;;;;;;;;;;;;;;;;;;6001304;23;19926;-86
2022/03/12 20:30:54;;;;;;;;;;;;;;;;;;5978186;23;19918;-86
2022/03/12 20:33:22;;;;;;;;;;;;;;;;;;6000974;23;19918;-87
2022/03/12 20:35:52;;;;;;;;;;;;;;;;;;6000668;23;20003;-85
2022/03/12 20:38:23;;;;;;;;;;;;;;;;;;5976973;23;19922;-87
2022/03/12 20:40:50;;;;;;;;;;;;;;;;;;6001989;23;19922;-87
2022/03/12 20:43:17;;;;;;;;;;;;;;;;;;5997703;23;19970;-86
2022/03/12 20:45:43;;;;;;;;;;;;;;;;;;6004310;23;19926;-87
2022/03/12 20:48:11;;;;;;;;;;;;;;;;;;6002385;23;19926;-82
2022/03/12 20:50:37;;;;;;;;;;;;;;;;;;5996649;23;19922;-86
2022/03/12 20:53:04;;;;;;;;;;;;;;;;;;6001835;23;19958;-84
2022/03/12 20:55:31;;;;;;;;;;;;;;;;;;6002602;23;19993;-84
2022/03/12 20:57:58;;;;;;;;;;;;;;;;;;6003865;23;19978;-83
2022/03/12 21:00:25;;;;;;;;;;;;;;;;;;6002489;23;19922;-83
2022/03/12 21:02:51;;;;;;;;;;;;;;;;;;6003558;23;20377;-81
2022/03/12 21:05:18;;;;;;;;;;;;;;;;;;6003088;23;19994;-84
2022/03/12 21:08:08;;;;;;;;;;;;;;;;;;5983445;23;20368;-84
2022/03/12 21:10:36;;;;;;;;;;;;;;;;;;5979231;23;19921;-84
2022/03/12 21:13:03;;;;;;;;;;;;;;;;;;6003203;23;19918;-88
2022/03/12 21:15:30;;;;;;;;;;;;;;;;;;6003356;23;20029;-84
2022/03/12 21:17:57;;;;;;;;;;;;;;;;;;6002801;23;20417;-85
2022/03/12 21:20:28;;;;;;;;;;;;;;;;;;6002964;23;20404;-83
2022/03/12 21:22:55;;;;;;;;;;;;;;;;;;6004423;23;19918;-84
2022/03/12 21:25:23;;;;;;;;;;;;;;;;;;6003094;23;19918;-87
2022/03/12 21:27:50;;;;;;;;;;;;;;;;;;6003602;23;19951;-86
2022/03/12 21:30:18;;;;;;;;;;;;;;;;;;6003432;23;19989;-87
2022/03/12 21:32:45;;;;;;;;;;;;;;;;;;6001973;23;19922;-85
2022/03/12 21:35:12;;;;;;;;;;;;;;;;;;6002164;23;19922;-87
2022/03/12 21:37:39;;;;;;;;;;;;;;;;;;6002169;23;19929;-85
2022/03/12 21:40:06;;;;;;;;;;;;;;;;;;5976312;23;19922;-84
2022/03/12 21:42:34;;;;;;;;;;;;;;;;;;6002162;23;19944;-84
2022/03/12 21:45:01;;;;;;;;;;;;;;;;;;5977826;23;19951;-85
2022/03/12 21:47:30;;;;;;;;;;;;;;;;;;5975595;23;20397;-83
2022/03/12 21:49:56;;;;;;;;;;;;;;;;;;6001248;23;19922;-83
2022/03/12 21:52:23;;;;;;;;;;;;;;;;;;6002823;23;19954;-85
2022/03/12 21:54:50;;;;;;;;;;;;;;;;;;6003481;23;19922;-84
2022/03/12 21:57:17;;;;;;;;;;;;;;;;;;6003283;23;20322;-85
2022/03/12 21:59:43;;;;;;;;;;;;;;;;;;6005114;23;19918;-85
2022/03/12 22:02:12;;;;;;;;;;;;;;;;;;6004072;23;19925;-87
2022/03/12 22:04:39;;;;;;;;;;;;;;;;;;6005622;23;19922;-84
2022/03/12 22:07:06;;;;;;;;;;;;;;;;;;6003520;23;20303;-87
2022/03/12 22:09:33;;;;;;;;;;;;;;;;;;6005090;23;19922;-86
2022/03/12 22:11:59;;;;;;;;;;;;;;;;;;6005495;23;19918;-86
2022/03/12 22:14:29;;;;;;;;;;;;;;;;;;6004774;23;19922;-86
2022/03/12 22:16:58;;;;;;;;;;;;;;;;;;6005269;23;19934;-85
2022/03/12 22:19:27;;;;;;;;;;;;;;;;;;6004626;23;19974;-87
2022/03/12 22:21:55;;;;;;;;;;;;;;;;;;6005377;23;19922;-86
2022/03/12 22:24:22;;;;;;;;;;;;;;;;;;6004335;23;20018;-86
2022/03/12 22:26:49;;;;;;;;;;;;;;;;;;6004386;23;20306;-86
2022/03/12 22:29:16;;;;;;;;;;;;;;;;;;6004685;23;19918;-84
2022/03/12 22:31:45;;;;;;;;;;;;;;;;;;6004722;23;19974;-85
2022/03/12 22:34:12;;;;;;;;;;;;;;;;;;5979833;23;19918;-85
2022/03/12 22:36:39;;;;;;;;;;;;;;;;;;6004066;23;20502;-85
2022/03/12 22:39:07;;;;;;;;;;;;;;;;;;6004164;23;19922;-84
2022/03/12 22:41:34;;;;;;;;;;;;;;;;;;6004621;23;20250;-84
2022/03/12 22:44:03;;;;;;;;;;;;;;;;;;6003937;23;19918;-86
2022/03/12 22:46:30;;;;;;;;;;;;;;;;;;6006559;23;19945;-89
2022/03/12 22:48:58;;;;;;;;;;;;;;;;;;5983887;23;19926;-86
2022/03/12 22:51:24;;;;;;;;;;;;;;;;;;6007947;23;19989;-86
2022/03/12 22:53:51;;;;;;;;;;;;;;;;;;6008452;23;20409;-86
2022/03/12 22:56:18;;;;;;;;;;;;;;;;;;6008033;23;19946;-85
2022/03/12 22:58:45;;;;;;;;;;;;;;;;;;6007816;23;20696;-84
2022/03/12 23:01:30;;;;;;;;;;;;;;;;;;6007708;23;19992;-84
2022/03/12 23:09:27;;;;;;;;;;;;;;;;;;6008077;23;19918;-84
2022/03/12 23:11:54;;;;;;;;;;;;;;;;;;5984094;23;19919;-84
2022/03/12 23:14:39;;;;;;;;;;;;;;;;;;6007754;23;19918;-84
2022/03/12 23:17:06;;;;;;;;;;;;;;;;;;5982851;23;19934;-83
2022/03/12 23:19:34;;;;;;;;;;;;;;;;;;6007955;23;19926;-84
2022/03/12 23:22:01;;;;;;;;;;;;;;;;;;6008686;23;20318;-84
2022/03/12 23:24:27;;;;;;;;;;;;;;;;;;6007514;23;19973;-85
2022/03/12 23:26:54;;;;;;;;;;;;;;;;;;6008123;23;19918;-83
2022/03/12 23:29:23;;;;;;;;;;;;;;;;;;5983548;23;19918;-83
2022/03/12 23:31:56;;;;;;;;;;;;;;;;;;6009063;23;20247;-85
2022/03/12 23:34:23;;;;;;;;;;;;;;;;;;6007659;23;19918;-84
2022/03/12 23:36:50;;;;;;;;;;;;;;;;;;6007488;23;19926;-85
2022/03/12 23:39:17;;;;;;;;;;;;;;;;;;5998538;23;19922;-85
2022/03/12 23:41:47;;;;;;;;;;;;;;;;;;6008063;23;20235;-84
2022/03/12 23:44:15;;;;;;;;;;;;;;;;;;6008185;23;19918;-84
2022/03/12 23:46:45;;;;;;;;;;;;;;;;;;6008805;23;19918;-84
2022/03/12 23:49:12;;;;;;;;;;;;;;;;;;6007461;23;19929;-85
2022/03/12 23:51:57;;;;;;;;;;;;;;;;;;6008656;23;19977;-85
2022/03/12 23:54:24;;;;;;;;;;;;;;;;;;6007615;23;19922;-84
2022/03/12 23:56:50;;;;;;;;;;;;;;;;;;6008551;23;19974;-84
2022/03/12 23:59:20;;;;;;;;;;;;;;;;;;6007868;23;20269;-84
